sensor_id;sensor_type;location;lat;lon;timestamp;pressure;altitude;pressure_sealevel;temperature;humidity
21100;BME280;10708;50.824;4.408;2023-04-26T00:04:40;100999.31;;;4.14;100.00
21100;BME280;10708;50.824;4.408;2023-04-26T00:09:45;101002.81;;;4.08;100.00
21100;BME280;10708;50.824;4.408;2023-04-26T00:14:49;101007.16;;;4.05;100.00
21100;BME280;10708;50.824;4.408;2023-04-26T00:19:53;101001.94;;;4.05;100.00
21100;BME280;10708;50.824;4.408;2023-04-26T00:24:59;101011.50;;;4.00;100.00
21100;BME280;10708;50.824;4.408;2023-04-26T00:30:03;101002.81;;;3.92;100.00
21100;BME280;10708;50.824;4.408;2023-04-26T00:35:06;101010.66;;;3.83;100.00
21100;BME280;10708;50.824;4.408;2023-04-26T00:40:12;101013.28;;;3.72;100.00
21100;BME280;10708;50.824;4.408;2023-04-26T00:45:16;101006.31;;;3.69;100.00
21100;BME280;10708;50.824;4.408;2023-04-26T00:50:19;101002.00;;;3.68;100.00
21100;BME280;10708;50.824;4.408;2023-04-26T00:55:23;101003.72;;;3.62;100.00
21100;BME280;10708;50.824;4.408;2023-04-26T01:00:27;101008.06;;;3.52;100.00
21100;BME280;10708;50.824;4.408;2023-04-26T01:05:30;101009.81;;;3.46;100.00
21100;BME280;10708;50.824;4.408;2023-04-26T01:10:34;101004.59;;;3.41;100.00
21100;BME280;10708;50.824;4.408;2023-04-26T01:15:42;101009.81;;;3.37;100.00
21100;BME280;10708;50.824;4.408;2023-04-26T01:20:46;101011.53;;;3.34;100.00
21100;BME280;10708;50.824;4.408;2023-04-26T01:25:50;101005.47;;;3.34;100.00
21100;BME280;10708;50.824;4.408;2023-04-26T01:30:53;101004.59;;;3.33;100.00
21100;BME280;10708;50.824;4.408;2023-04-26T01:35:59;101009.81;;;3.29;100.00
21100;BME280;10708;50.824;4.408;2023-04-26T01:41:04;101004.59;;;3.24;100.00
21100;BME280;10708;50.824;4.408;2023-04-26T01:46:07;100995.06;;;3.19;100.00
21100;BME280;10708;50.824;4.408;2023-04-26T01:51:11;100997.63;;;3.14;100.00
21100;BME280;10708;50.824;4.408;2023-04-26T01:56:15;101001.97;;;3.06;100.00
21100;BME280;10708;50.824;4.408;2023-04-26T02:01:18;100991.53;;;3.02;100.00
21100;BME280;10708;50.824;4.408;2023-04-26T02:06:21;100982.84;;;3.00;100.00
21100;BME280;10708;50.824;4.408;2023-04-26T02:11:25;100981.13;;;2.97;100.00
21100;BME280;10708;50.824;4.408;2023-04-26T02:16:28;100975.03;;;2.93;100.00
21100;BME280;10708;50.824;4.408;2023-04-26T02:21:31;100978.50;;;2.86;100.00
21100;BME280;10708;50.824;4.408;2023-04-26T02:26:36;100974.16;;;2.78;100.00
21100;BME280;10708;50.824;4.408;2023-04-26T02:31:38;100974.13;;;2.75;100.00
21100;BME280;10708;50.824;4.408;2023-04-26T02:36:41;100967.22;;;2.69;100.00
21100;BME280;10708;50.824;4.408;2023-04-26T02:41:44;100964.59;;;2.69;100.00
21100;BME280;10708;50.824;4.408;2023-04-26T02:46:47;100968.91;;;2.66;100.00
21100;BME280;10708;50.824;4.408;2023-04-26T02:51:51;100965.44;;;2.64;100.00
21100;BME280;10708;50.824;4.408;2023-04-26T02:56:55;100964.59;;;2.68;100.00
21100;BME280;10708;50.824;4.408;2023-04-26T03:01:58;100962.88;;;2.68;100.00
21100;BME280;10708;50.824;4.408;2023-04-26T03:07:01;100962.00;;;2.72;100.00
21100;BME280;10708;50.824;4.408;2023-04-26T03:12:05;100962.84;;;2.73;100.00
21100;BME280;10708;50.824;4.408;2023-04-26T03:17:08;100960.25;;;2.73;100.00
21100;BME280;10708;50.824;4.408;2023-04-26T03:22:11;100964.63;;;2.78;100.00
21100;BME280;10708;50.824;4.408;2023-04-26T03:27:17;100962.88;;;2.80;100.00
21100;BME280;10708;50.824;4.408;2023-04-26T03:32:20;100964.59;;;2.80;100.00
21100;BME280;10708;50.824;4.408;2023-04-26T03:37:22;100962.00;;;2.75;100.00
21100;BME280;10708;50.824;4.408;2023-04-26T03:42:26;100963.72;;;2.70;100.00
21100;BME280;10708;50.824;4.408;2023-04-26T03:47:29;100957.66;;;2.65;100.00
21100;BME280;10708;50.824;4.408;2023-04-26T03:52:31;100954.16;;;2.63;100.00
21100;BME280;10708;50.824;4.408;2023-04-26T03:57:36;100946.34;;;2.57;100.00
21100;BME280;10708;50.824;4.408;2023-04-26T04:02:39;100946.34;;;2.54;100.00
21100;BME280;10708;50.824;4.408;2023-04-26T04:07:42;100953.28;;;2.49;100.00
21100;BME280;10708;50.824;4.408;2023-04-26T04:12:46;100950.69;;;2.49;100.00
21100;BME280;10708;50.824;4.408;2023-04-26T04:17:53;100948.94;;;2.48;100.00
21100;BME280;10708;50.824;4.408;2023-04-26T04:23:00;100943.75;;;2.48;100.00
21100;BME280;10708;50.824;4.408;2023-04-26T04:28:05;100944.59;;;2.53;100.00
21100;BME280;10708;50.824;4.408;2023-04-26T04:33:08;100949.84;;;2.59;100.00
21100;BME280;10708;50.824;4.408;2023-04-26T04:38:14;100947.25;;;2.65;100.00
21100;BME280;10708;50.824;4.408;2023-04-26T04:43:18;100949.00;;;2.75;100.00
21100;BME280;10708;50.824;4.408;2023-04-26T04:48:21;100953.34;;;2.82;100.00
21100;BME280;10708;50.824;4.408;2023-04-26T04:53:23;100963.78;;;2.93;100.00
21100;BME280;10708;50.824;4.408;2023-04-26T04:58:27;100957.72;;;3.06;100.00
21100;BME280;10708;50.824;4.408;2023-04-26T05:03:29;100959.47;;;3.19;100.00
21100;BME280;10708;50.824;4.408;2023-04-26T05:08:33;100957.72;;;3.32;100.00
21100;BME280;10708;50.824;4.408;2023-04-26T05:13:37;100959.47;;;3.44;100.00
21100;BME280;10708;50.824;4.408;2023-04-26T05:18:40;100970.72;;;3.50;100.00
21100;BME280;10708;50.824;4.408;2023-04-26T05:23:42;100967.28;;;3.59;100.00
21100;BME280;10708;50.824;4.408;2023-04-26T05:28:46;100972.47;;;3.71;100.00
21100;BME280;10708;50.824;4.408;2023-04-26T05:33:48;100980.25;;;3.80;100.00
21100;BME280;10708;50.824;4.408;2023-04-26T05:38:51;100988.94;;;3.91;100.00
21100;BME280;10708;50.824;4.408;2023-04-26T05:43:55;100992.34;;;4.10;100.00
21100;BME280;10708;50.824;4.408;2023-04-26T05:48:58;100996.63;;;4.32;100.00
21100;BME280;10708;50.824;4.408;2023-04-26T05:54:01;100995.69;;;4.53;100.00
21100;BME280;10708;50.824;4.408;2023-04-26T05:59:05;100997.34;;;4.72;100.00
21100;BME280;10708;50.824;4.408;2023-04-26T06:04:07;101003.31;;;4.91;100.00
21100;BME280;10708;50.824;4.408;2023-04-26T06:09:10;101009.28;;;5.13;100.00
21100;BME280;10708;50.824;4.408;2023-04-26T06:14:14;101011.69;;;5.40;100.00
21100;BME280;10708;50.824;4.408;2023-04-26T06:19:16;101012.31;;;5.73;100.00
21100;BME280;10708;50.824;4.408;2023-04-26T06:24:19;101022.53;;;6.02;100.00
21100;BME280;10708;50.824;4.408;2023-04-26T06:29:24;101028.38;;;6.28;100.00
21100;BME280;10708;50.824;4.408;2023-04-26T06:34:26;101016.75;;;6.50;100.00
21100;BME280;10708;50.824;4.408;2023-04-26T06:39:29;101007.72;;;6.76;100.00
21100;BME280;10708;50.824;4.408;2023-04-26T06:44:35;101003.97;;;6.95;100.00
21100;BME280;10708;50.824;4.408;2023-04-26T06:49:38;100996.97;;;6.97;100.00
21100;BME280;10708;50.824;4.408;2023-04-26T06:54:40;101011.81;;;6.96;100.00
21100;BME280;10708;50.824;4.408;2023-04-26T06:59:46;101000.31;;;7.08;100.00
21100;BME280;10708;50.824;4.408;2023-04-26T07:04:48;101008.66;;;7.31;100.00
21100;BME280;10708;50.824;4.408;2023-04-26T07:10:01;101007.47;;;7.51;100.00
21100;BME280;10708;50.824;4.408;2023-04-26T07:15:07;101002.09;;;7.60;100.00
21100;BME280;10708;50.824;4.408;2023-04-26T07:20:12;100999.44;;;7.61;100.00
21100;BME280;10708;50.824;4.408;2023-04-26T07:25:19;101006.34;;;7.68;100.00
21100;BME280;10708;50.824;4.408;2023-04-26T07:30:24;101004.34;;;7.81;100.00
21100;BME280;10708;50.824;4.408;2023-04-26T07:35:27;101016.25;;;7.99;100.00
21100;BME280;10708;50.824;4.408;2023-04-26T07:40:29;101002.03;;;8.12;100.00
21100;BME280;10708;50.824;4.408;2023-04-26T07:45:33;101009.41;;;8.39;100.00
21100;BME280;10708;50.824;4.408;2023-04-26T07:50:36;101012.47;;;9.03;100.00
21100;BME280;10708;50.824;4.408;2023-04-26T07:55:38;101004.50;;;9.44;100.00
21100;BME280;10708;50.824;4.408;2023-04-26T08:00:43;101012.31;;;9.81;100.00
21100;BME280;10708;50.824;4.408;2023-04-26T08:05:45;100999.09;;;10.18;100.00
21100;BME280;10708;50.824;4.408;2023-04-26T08:10:48;100995.84;;;10.70;100.00
21100;BME280;10708;50.824;4.408;2023-04-26T08:15:52;100993.91;;;11.06;100.00
21100;BME280;10708;50.824;4.408;2023-04-26T08:20:55;100982.06;;;11.18;100.00
21100;BME280;10708;50.824;4.408;2023-04-26T08:25:58;100974.97;;;11.48;100.00
21100;BME280;10708;50.824;4.408;2023-04-26T08:31:02;100986.28;;;12.04;100.00
21100;BME280;10708;50.824;4.408;2023-04-26T08:36:05;100966.97;;;12.02;100.00
21100;BME280;10708;50.824;4.408;2023-04-26T08:41:12;100967.72;;;13.22;100.00
21100;BME280;10708;50.824;4.408;2023-04-26T08:46:18;100968.25;;;13.09;100.00
21100;BME280;10708;50.824;4.408;2023-04-26T08:51:22;100967.16;;;12.69;100.00
21100;BME280;10708;50.824;4.408;2023-04-26T08:56:25;100951.75;;;12.34;100.00
21100;BME280;10708;50.824;4.408;2023-04-26T09:01:30;100962.66;;;12.00;100.00
21100;BME280;10708;50.824;4.408;2023-04-26T09:06:34;100945.38;;;11.91;100.00
21100;BME280;10708;50.824;4.408;2023-04-26T09:11:56;100954.16;;;11.92;100.00
21100;BME280;10708;50.824;4.408;2023-04-26T09:17:01;100962.41;;;11.82;100.00
21100;BME280;10708;50.824;4.408;2023-04-26T09:22:03;100957.97;;;12.08;100.00
21100;BME280;10708;50.824;4.408;2023-04-26T09:27:06;100955.19;;;11.88;100.00
21100;BME280;10708;50.824;4.408;2023-04-26T09:32:10;100965.09;;;11.55;100.00
21100;BME280;10708;50.824;4.408;2023-04-26T09:37:13;100966.78;;;11.29;100.00
21100;BME280;10708;50.824;4.408;2023-04-26T09:42:16;100964.81;;;11.62;100.00
21100;BME280;10708;50.824;4.408;2023-04-26T09:47:21;100958.84;;;11.83;100.00
21100;BME280;10708;50.824;4.408;2023-04-26T09:52:23;100965.03;;;12.32;100.00
21100;BME280;10708;50.824;4.408;2023-04-26T09:57:26;100960.31;;;12.87;100.00
21100;BME280;10708;50.824;4.408;2023-04-26T10:02:30;100945.81;;;12.97;100.00
21100;BME280;10708;50.824;4.408;2023-04-26T10:07:33;100952.03;;;12.96;100.00
21100;BME280;10708;50.824;4.408;2023-04-26T10:12:36;100940.09;;;13.51;100.00
21100;BME280;10708;50.824;4.408;2023-04-26T10:17:40;100942.72;;;13.51;100.00
21100;BME280;10708;50.824;4.408;2023-04-26T10:22:44;100937.41;;;13.93;100.00
21100;BME280;10708;50.824;4.408;2023-04-26T10:27:51;100924.91;;;14.36;100.00
21100;BME280;10708;50.824;4.408;2023-04-26T10:33:16;100925.81;;;14.55;100.00
21100;BME280;10708;50.824;4.408;2023-04-26T10:38:19;100921.22;;;13.79;100.00
21100;BME280;10708;50.824;4.408;2023-04-26T10:43:27;100907.31;;;14.54;100.00
21100;BME280;10708;50.824;4.408;2023-04-26T10:48:31;100900.31;;;14.32;100.00
21100;BME280;10708;50.824;4.408;2023-04-26T10:53:57;100895.78;;;14.55;100.00
21100;BME280;10708;50.824;4.408;2023-04-26T10:59:07;100883.41;;;14.16;100.00
21100;BME280;10708;50.824;4.408;2023-04-26T11:04:12;100882.75;;;13.08;100.00
21100;BME280;10708;50.824;4.408;2023-04-26T11:09:33;100891.19;;;12.06;100.00
21100;BME280;10708;50.824;4.408;2023-04-26T11:14:37;100887.63;;;11.57;100.00
21100;BME280;10708;50.824;4.408;2023-04-26T11:19:41;100877.81;;;11.36;100.00
21100;BME280;10708;50.824;4.408;2023-04-26T11:24:46;100886.78;;;11.30;100.00
21100;BME280;10708;50.824;4.408;2023-04-26T11:29:49;100884.50;;;11.20;100.00
21100;BME280;10708;50.824;4.408;2023-04-26T11:34:53;100868.88;;;11.40;100.00
21100;BME280;10708;50.824;4.408;2023-04-26T11:39:56;100869.16;;;11.57;100.00
21100;BME280;10708;50.824;4.408;2023-04-26T11:44:59;100871.72;;;11.59;100.00
21100;BME280;10708;50.824;4.408;2023-04-26T11:50:04;100862.09;;;11.33;100.00
21100;BME280;10708;50.824;4.408;2023-04-26T11:55:09;100854.50;;;11.24;100.00
21100;BME280;10708;50.824;4.408;2023-04-26T12:00:13;100865.94;;;11.23;100.00
21100;BME280;10708;50.824;4.408;2023-04-26T12:05:27;100871.78;;;11.06;100.00
21100;BME280;10708;50.824;4.408;2023-04-26T12:10:32;100868.13;;;11.10;100.00
21100;BME280;10708;50.824;4.408;2023-04-26T12:15:35;100862.91;;;11.08;100.00
21100;BME280;10708;50.824;4.408;2023-04-26T12:20:40;100879.56;;;11.09;100.00
21100;BME280;10708;50.824;4.408;2023-04-26T12:25:52;100872.22;;;11.19;100.00
21100;BME280;10708;50.824;4.408;2023-04-26T12:30:55;100869.84;;;11.37;100.00
21100;BME280;10708;50.824;4.408;2023-04-26T12:36:07;100860.50;;;11.54;100.00
21100;BME280;10708;50.824;4.408;2023-04-26T12:41:09;100852.03;;;11.94;100.00
21100;BME280;10708;50.824;4.408;2023-04-26T12:46:12;100862.19;;;12.04;100.00
21100;BME280;10708;50.824;4.408;2023-04-26T12:51:16;100852.09;;;11.92;100.00
21100;BME280;10708;50.824;4.408;2023-04-26T12:56:19;100863.22;;;11.77;100.00
21100;BME280;10708;50.824;4.408;2023-04-26T13:01:22;100866.06;;;11.69;100.00
21100;BME280;10708;50.824;4.408;2023-04-26T13:06:25;100858.09;;;11.71;100.00
21100;BME280;10708;50.824;4.408;2023-04-26T13:11:28;100858.47;;;11.60;100.00
21100;BME280;10708;50.824;4.408;2023-04-26T13:16:31;100853.81;;;11.43;100.00
21100;BME280;10708;50.824;4.408;2023-04-26T13:21:36;100854.41;;;11.27;100.00
21100;BME280;10708;50.824;4.408;2023-04-26T13:26:41;100849.44;;;11.42;100.00
21100;BME280;10708;50.824;4.408;2023-04-26T13:31:44;100847.50;;;11.72;100.00
21100;BME280;10708;50.824;4.408;2023-04-26T13:36:48;100847.16;;;11.83;100.00
21100;BME280;10708;50.824;4.408;2023-04-26T13:41:51;100849.97;;;12.02;100.00
21100;BME280;10708;50.824;4.408;2023-04-26T13:46:54;100848.94;;;12.29;100.00
21100;BME280;10708;50.824;4.408;2023-04-26T13:51:59;100848.34;;;12.44;100.00
21100;BME280;10708;50.824;4.408;2023-04-26T13:57:01;100844.28;;;12.79;100.00
21100;BME280;10708;50.824;4.408;2023-04-26T14:02:04;100839.22;;;12.97;100.00
21100;BME280;10708;50.824;4.408;2023-04-26T14:07:09;100836.84;;;12.89;100.00
21100;BME280;10708;50.824;4.408;2023-04-26T14:12:12;100831.25;;;13.18;100.00
21100;BME280;10708;50.824;4.408;2023-04-26T14:17:14;100823.03;;;13.04;100.00
21100;BME280;10708;50.824;4.408;2023-04-26T14:22:19;100821.94;;;13.08;100.00
21100;BME280;10708;50.824;4.408;2023-04-26T14:27:21;100818.13;;;12.95;100.00
21100;BME280;10708;50.824;4.408;2023-04-26T14:32:24;100815.31;;;13.20;100.00
21100;BME280;10708;50.824;4.408;2023-04-26T14:37:28;100815.53;;;13.36;100.00
21100;BME280;10708;50.824;4.408;2023-04-26T14:42:31;100808.41;;;13.17;99.90
21100;BME280;10708;50.824;4.408;2023-04-26T14:47:33;100810.19;;;13.17;100.00
21100;BME280;10708;50.824;4.408;2023-04-26T14:52:37;100807.88;;;12.87;100.00
21100;BME280;10708;50.824;4.408;2023-04-26T14:57:40;100807.56;;;12.73;99.13
21100;BME280;10708;50.824;4.408;2023-04-26T15:02:43;100807.00;;;12.65;96.56
21100;BME280;10708;50.824;4.408;2023-04-26T15:07:47;100817.69;;;12.62;100.00
21100;BME280;10708;50.824;4.408;2023-04-26T15:12:52;100802.97;;;12.56;100.00
21100;BME280;10708;50.824;4.408;2023-04-26T15:17:55;100802.38;;;12.92;100.00
21100;BME280;10708;50.824;4.408;2023-04-26T15:22:59;100782.06;;;13.14;100.00
21100;BME280;10708;50.824;4.408;2023-04-26T15:28:02;100775.75;;;12.97;100.00
21100;BME280;10708;50.824;4.408;2023-04-26T15:33:05;100790.69;;;12.55;99.28
21100;BME280;10708;50.824;4.408;2023-04-26T15:38:09;100786.69;;;12.45;99.18
21100;BME280;10708;50.824;4.408;2023-04-26T15:43:12;100788.94;;;12.54;95.95
21100;BME280;10708;50.824;4.408;2023-04-26T15:48:16;100787.72;;;12.63;98.60
21100;BME280;10708;50.824;4.408;2023-04-26T15:53:20;100776.88;;;12.69;97.04
21100;BME280;10708;50.824;4.408;2023-04-26T15:58:24;100775.53;;;12.81;97.50
21100;BME280;10708;50.824;4.408;2023-04-26T16:03:26;100778.06;;;12.84;99.38
21100;BME280;10708;50.824;4.408;2023-04-26T16:08:30;100771.41;;;12.96;98.02
21100;BME280;10708;50.824;4.408;2023-04-26T16:13:34;100775.16;;;12.68;97.50
21100;BME280;10708;50.824;4.408;2023-04-26T16:18:37;100788.13;;;12.74;96.47
21100;BME280;10708;50.824;4.408;2023-04-26T16:23:42;100782.84;;;12.74;96.08
21100;BME280;10708;50.824;4.408;2023-04-26T16:28:45;100782.75;;;12.55;100.00
21100;BME280;10708;50.824;4.408;2023-04-26T16:33:47;100788.50;;;12.22;98.10
21100;BME280;10708;50.824;4.408;2023-04-26T16:38:51;100775.66;;;12.12;96.84
21100;BME280;10708;50.824;4.408;2023-04-26T16:43:54;100782.66;;;12.13;98.40
21100;BME280;10708;50.824;4.408;2023-04-26T16:48:58;100788.59;;;12.18;97.54
21100;BME280;10708;50.824;4.408;2023-04-26T16:54:02;100788.84;;;12.12;96.56
21100;BME280;10708;50.824;4.408;2023-04-26T16:59:05;100800.69;;;12.02;99.46
21100;BME280;10708;50.824;4.408;2023-04-26T17:04:07;100793.66;;;11.78;100.00
21100;BME280;10708;50.824;4.408;2023-04-26T17:09:11;100797.47;;;11.69;99.36
21100;BME280;10708;50.824;4.408;2023-04-26T17:14:13;100789.78;;;11.63;100.00
21100;BME280;10708;50.824;4.408;2023-04-26T17:19:16;100802.84;;;11.68;100.00
21100;BME280;10708;50.824;4.408;2023-04-26T17:24:20;100799.88;;;11.77;100.00
21100;BME280;10708;50.824;4.408;2023-04-26T17:29:22;100815.63;;;11.78;100.00
21100;BME280;10708;50.824;4.408;2023-04-26T17:34:25;100807.84;;;11.75;100.00
21100;BME280;10708;50.824;4.408;2023-04-26T17:39:31;100813.00;;;11.54;100.00
21100;BME280;10708;50.824;4.408;2023-04-26T17:44:34;100825.44;;;11.50;100.00
21100;BME280;10708;50.824;4.408;2023-04-26T17:49:37;100812.66;;;11.38;100.00
21100;BME280;10708;50.824;4.408;2023-04-26T17:54:41;100832.44;;;11.26;100.00
21100;BME280;10708;50.824;4.408;2023-04-26T17:59:43;100826.41;;;11.23;100.00
21100;BME280;10708;50.824;4.408;2023-04-26T18:04:46;100831.06;;;11.15;100.00
21100;BME280;10708;50.824;4.408;2023-04-26T18:09:50;100834.53;;;11.17;100.00
21100;BME280;10708;50.824;4.408;2023-04-26T18:14:52;100835.63;;;11.09;100.00
21100;BME280;10708;50.824;4.408;2023-04-26T18:19:54;100841.41;;;10.94;100.00
21100;BME280;10708;50.824;4.408;2023-04-26T18:24:59;100844.63;;;10.78;100.00
21100;BME280;10708;50.824;4.408;2023-04-26T18:30:01;100848.72;;;10.58;100.00
21100;BME280;10708;50.824;4.408;2023-04-26T18:35:05;100853.63;;;10.41;100.00
21100;BME280;10708;50.824;4.408;2023-04-26T18:40:10;100851.44;;;10.27;100.00
21100;BME280;10708;50.824;4.408;2023-04-26T18:45:13;100863.06;;;10.19;100.00
21100;BME280;10708;50.824;4.408;2023-04-26T18:50:16;100869.59;;;10.06;100.00
21100;BME280;10708;50.824;4.408;2023-04-26T18:55:20;100866.47;;;9.91;100.00
21100;BME280;10708;50.824;4.408;2023-04-26T19:00:23;100880.06;;;9.76;100.00
21100;BME280;10708;50.824;4.408;2023-04-26T19:05:26;100880.44;;;9.62;100.00
21100;BME280;10708;50.824;4.408;2023-04-26T19:10:30;100883.34;;;9.52;100.00
21100;BME280;10708;50.824;4.408;2023-04-26T19:15:36;100894.13;;;9.41;100.00
21100;BME280;10708;50.824;4.408;2023-04-26T19:20:38;100910.22;;;9.29;100.00
21100;BME280;10708;50.824;4.408;2023-04-26T19:25:42;100902.66;;;9.17;100.00
21100;BME280;10708;50.824;4.408;2023-04-26T19:30:47;100910.75;;;9.08;100.00
21100;BME280;10708;50.824;4.408;2023-04-26T19:35:50;100918.84;;;8.99;100.00
21100;BME280;10708;50.824;4.408;2023-04-26T19:40:54;100912.00;;;8.92;100.00
21100;BME280;10708;50.824;4.408;2023-04-26T19:46:09;100911.34;;;8.83;100.00
21100;BME280;10708;50.824;4.408;2023-04-26T19:51:15;100912.34;;;8.78;100.00
21100;BME280;10708;50.824;4.408;2023-04-26T19:56:20;100908.97;;;8.71;100.00
21100;BME280;10708;50.824;4.408;2023-04-26T20:01:23;100915.25;;;8.66;100.00
21100;BME280;10708;50.824;4.408;2023-04-26T20:06:26;100925.94;;;8.57;100.00
21100;BME280;10708;50.824;4.408;2023-04-26T20:11:30;100929.56;;;8.51;100.00
21100;BME280;10708;50.824;4.408;2023-04-26T20:16:32;100937.59;;;8.43;100.00
21100;BME280;10708;50.824;4.408;2023-04-26T20:21:35;100936.84;;;8.38;100.00
21100;BME280;10708;50.824;4.408;2023-04-26T20:26:39;100933.47;;;8.29;100.00
21100;BME280;10708;50.824;4.408;2023-04-26T20:31:41;100943.28;;;8.21;100.00
21100;BME280;10708;50.824;4.408;2023-04-26T20:36:44;100938.19;;;8.13;100.00
21100;BME280;10708;50.824;4.408;2023-04-26T20:47:18;100956.75;;;8.02;100.00
21100;BME280;10708;50.824;4.408;2023-04-26T20:52:21;100961.25;;;7.96;100.00
21100;BME280;10708;50.824;4.408;2023-04-26T20:57:24;100956.97;;;7.90;100.00
21100;BME280;10708;50.824;4.408;2023-04-26T21:02:28;100951.88;;;7.83;100.00
21100;BME280;10708;50.824;4.408;2023-04-26T21:07:30;100955.47;;;7.78;100.00
21100;BME280;10708;50.824;4.408;2023-04-26T21:12:33;100954.72;;;7.70;100.00
21100;BME280;10708;50.824;4.408;2023-04-26T21:17:37;100951.41;;;7.61;100.00
21100;BME280;10708;50.824;4.408;2023-04-26T21:22:40;100957.66;;;7.52;100.00
21100;BME280;10708;50.824;4.408;2023-04-26T21:27:42;100962.19;;;7.43;100.00
21100;BME280;10708;50.824;4.408;2023-04-26T21:32:46;100967.56;;;7.35;100.00
21100;BME280;10708;50.824;4.408;2023-04-26T21:37:52;100971.13;;;7.29;100.00
21100;BME280;10708;50.824;4.408;2023-04-26T21:42:58;100960.78;;;7.22;100.00
21100;BME280;10708;50.824;4.408;2023-04-26T21:48:05;100970.53;;;7.14;100.00
21100;BME280;10708;50.824;4.408;2023-04-26T21:53:07;100960.16;;;7.06;100.00
21100;BME280;10708;50.824;4.408;2023-04-26T21:58:10;100954.22;;;6.96;100.00
21100;BME280;10708;50.824;4.408;2023-04-26T22:03:14;100951.63;;;6.92;100.00
21100;BME280;10708;50.824;4.408;2023-04-26T22:08:17;100950.88;;;6.84;100.00
21100;BME280;10708;50.824;4.408;2023-04-26T22:13:19;100948.31;;;6.79;100.00
21100;BME280;10708;50.824;4.408;2023-04-26T22:18:23;100948.44;;;6.73;100.00
21100;BME280;10708;50.824;4.408;2023-04-26T22:23:27;100963.38;;;6.65;100.00
21100;BME280;10708;50.824;4.408;2023-04-26T22:28:31;100963.44;;;6.59;100.00
21100;BME280;10708;50.824;4.408;2023-04-26T22:33:35;100953.09;;;6.50;100.00
21100;BME280;10708;50.824;4.408;2023-04-26T22:38:37;100958.41;;;6.44;100.00
21100;BME280;10708;50.824;4.408;2023-04-26T22:43:40;100957.63;;;6.39;100.00
21100;BME280;10708;50.824;4.408;2023-04-26T22:48:45;100969.84;;;6.37;100.00
21100;BME280;10708;50.824;4.408;2023-04-26T22:53:47;100976.00;;;6.33;100.00
21100;BME280;10708;50.824;4.408;2023-04-26T22:58:50;100983.06;;;6.24;100.00
21100;BME280;10708;50.824;4.408;2023-04-26T23:03:54;100993.59;;;6.18;100.00
21100;BME280;10708;50.824;4.408;2023-04-26T23:08:56;100994.53;;;6.13;100.00
21100;BME280;10708;50.824;4.408;2023-04-26T23:13:59;101002.44;;;6.08;100.00
21100;BME280;10708;50.824;4.408;2023-04-26T23:19:04;100997.25;;;6.04;100.00
21100;BME280;10708;50.824;4.408;2023-04-26T23:24:06;101002.50;;;5.99;100.00
21100;BME280;10708;50.824;4.408;2023-04-26T23:29:08;101018.22;;;5.98;100.00
21100;BME280;10708;50.824;4.408;2023-04-26T23:34:12;101021.75;;;5.90;100.00
21100;BME280;10708;50.824;4.408;2023-04-26T23:39:15;101027.91;;;5.88;100.00
21100;BME280;10708;50.824;4.408;2023-04-26T23:44:17;101021.78;;;5.86;100.00
21100;BME280;10708;50.824;4.408;2023-04-26T23:49:21;101027.91;;;5.83;100.00
21100;BME280;10708;50.824;4.408;2023-04-26T23:54:24;101030.53;;;5.82;100.00
21100;BME280;10708;50.824;4.408;2023-04-26T23:59:27;101031.41;;;5.81;100.00
